Time;durP1;ratioP1;P1;durP2;ratioP2;P2;SDS_P1;SDS_P2;PMS_P1;PMS_P2;Temp;Humidity;BMP_temperature;BMP_pressure;BME280_temperature;BME280_humidity;BME280_pressure;Samples;Min_cycle;Max_cycle;Signal;HPM_P1;HPM_P2
2023/06/20 00:00:47;;;;;;;17.00;12.30;;;17.40;99.90;;;;;;2037079;69;26862;-89
2023/06/20 00:50:00;;;;;;;15.73;12.50;;;17.00;99.90;;;;;;1970629;72;27143;-90
2023/06/20 00:55:52;;;;;;;17.03;12.10;;;16.90;99.90;;;;;;1950067;72;26913;-90
2023/06/20 00:58:42;;;;;;;19.87;12.60;;;17.00;99.90;;;;;;1934544;73;25213;-89
2023/06/20 01:01:32;;;;;;;17.73;12.17;;;17.00;99.90;;;;;;1913375;73;25241;-90
2023/06/20 01:04:31;;;;;;;16.70;12.23;;;17.00;99.90;;;;;;1928458;72;25267;-90
2023/06/20 01:07:25;;;;;;;14.87;12.03;;;17.00;99.90;;;;;;1936000;73;25227;-89
2023/06/20 01:10:24;;;;;;;16.37;12.70;;;;;;;;;;1923335;72;25293;-90
2023/06/20 01:13:17;;;;;;;17.80;13.07;;;17.00;99.90;;;;;;1931242;73;25214;-89
2023/06/20 02:12:41;;;;;;;16.40;13.73;;;17.00;99.90;;;;;;1932864;72;27018;-92
2023/06/20 02:22:49;;;;;;;22.80;13.40;;;16.60;99.90;;;;;;1907100;74;27583;-90
2023/06/20 02:25:42;;;;;;;18.70;13.93;;;16.70;99.90;;;;;;1879227;75;25250;-90
2023/06/20 02:28:40;;;;;;;23.60;13.63;;;16.80;99.90;;;;;;1866212;75;25215;-90
2023/06/20 02:31:32;;;;;;;20.03;13.43;;;16.70;99.90;;;;;;1885315;75;25233;-90
2023/06/20 02:34:31;;;;;;;16.93;12.97;;;16.70;99.90;;;;;;1891359;75;25217;-90
2023/06/20 02:37:20;;;;;;;17.13;13.43;;;16.70;99.90;;;;;;1885706;75;25758;-90
2023/06/20 02:40:16;;;;;;;18.77;13.30;;;16.70;99.90;;;;;;1878561;75;25288;-90
2023/06/20 02:43:23;;;;;;;18.77;13.77;;;16.70;99.90;;;;;;1871407;74;25312;-90
2023/06/20 02:49:08;;;;;;;20.90;13.80;;;16.60;99.90;;;;;;1942212;72;26880;-90
2023/06/20 02:52:03;;;;;;;18.93;14.27;;;16.50;99.90;;;;;;1938888;73;25224;-90
2023/06/20 02:55:21;;;;;;;20.80;14.37;;;16.50;99.90;;;;;;1939973;73;26461;-90
2023/06/20 02:58:13;;;;;;;21.50;14.47;;;16.60;99.90;;;;;;1943881;73;25645;-90
2023/06/20 03:01:04;;;;;;;19.90;14.53;;;16.60;99.90;;;;;;1937103;73;25269;-90
2023/06/20 03:03:54;;;;;;;18.23;14.30;;;16.60;99.90;;;;;;1939243;72;25286;-90
2023/06/20 03:20:34;;;;;;;15.70;12.13;;;16.60;99.90;;;;;;1826562;76;27136;-91
2023/06/20 10:04:29;;;;;;;12.77;10.03;;;21.30;99.90;;;;;;1907677;74;26377;-92
2023/06/20 10:08:04;;;;;;;12.23;8.57;;;23.30;99.90;;;;;;1881537;75;25732;-92
2023/06/20 15:04:54;;;;;;;7.50;6.70;;;25.90;99.90;;;;;;1891159;74;26252;-91
2023/06/20 15:42:34;;;;;;;7.70;6.90;;;25.90;99.90;;;;;;1978072;71;27403;-91
2023/06/20 15:45:20;;;;;;;8.07;6.77;;;26.00;99.90;;;;;;1997767;71;26277;-91
2023/06/20 16:03:23;;;;;;;8.33;7.17;;;25.80;99.90;;;;;;1996494;71;27371;-92
2023/06/20 16:39:43;;;;;;;9.87;7.70;;;26.10;99.90;;;;;;1858155;75;28155;-91
2023/06/20 18:14:56;;;;;;;10.00;7.50;;;25.10;99.90;;;;;;1921036;74;28475;-91
2023/06/20 18:20:31;;;;;;;8.27;7.33;;;24.80;99.90;;;;;;1940448;72;27080;-90
2023/06/20 18:23:21;;;;;;;10.97;7.30;;;24.60;99.90;;;;;;1922016;73;25386;-89
2023/06/20 18:26:10;;;;;;;8.57;7.27;;;24.50;99.90;;;;;;1935419;72;25277;-89
2023/06/20 18:28:59;;;;;;;14.03;7.27;;;24.50;99.90;;;;;;1932538;72;25877;-90
2023/06/20 18:31:48;;;;;;;8.30;7.37;;;24.40;99.90;;;;;;1939612;73;25723;-90
2023/06/20 18:34:49;;;;;;;12.47;7.30;;;24.40;99.90;;;;;;1926068;73;25222;-89
2023/06/20 18:37:40;;;;;;;7.63;6.73;;;24.30;99.90;;;;;;1926236;73;25249;-89
2023/06/20 19:26:31;;;;;;;13.27;8.23;;;23.60;99.90;;;;;;1933286;72;26904;-90
2023/06/20 19:29:20;;;;;;;9.73;8.03;;;23.50;99.90;;;;;;1901362;73;25291;-89
2023/06/20 19:32:10;;;;;;;13.57;8.53;;;23.40;99.90;;;;;;1895715;74;25719;-89
2023/06/20 19:34:59;;;;;;;11.17;8.30;;;23.50;99.90;;;;;;1905938;75;25229;-89
2023/06/20 19:37:48;;;;;;;12.77;8.60;;;23.50;99.90;;;;;;1906079;75;25215;-89
2023/06/20 19:40:37;;;;;;;12.10;8.50;;;23.40;99.90;;;;;;1907810;74;25253;-89
2023/06/20 19:43:26;;;;;;;9.27;8.33;;;23.30;99.90;;;;;;1894583;75;25789;-89
2023/06/20 19:46:15;;;;;;;12.37;8.63;;;23.20;99.90;;;;;;1877301;75;25238;-89
2023/06/20 19:49:03;;;;;;;12.37;8.67;;;23.20;99.90;;;;;;1903472;75;25305;-90
2023/06/20 19:51:53;;;;;;;14.10;8.77;;;23.10;99.90;;;;;;1894548;74;25241;-89
2023/06/20 19:57:35;;;;;;;11.53;9.07;;;22.80;99.90;;;;;;1948068;72;27075;-89
2023/06/20 20:00:25;;;;;;;12.83;8.47;;;22.70;99.90;;;;;;1939924;73;25206;-89
2023/06/20 20:03:14;;;;;;;11.60;8.87;;;22.60;99.90;;;;;;1940035;72;25333;-89
2023/06/20 20:06:03;;;;;;;12.00;9.10;;;22.60;99.90;;;;;;1929964;73;25322;-89
2023/06/20 20:08:51;;;;;;;12.57;9.13;;;22.40;99.90;;;;;;1927817;72;25305;-89
2023/06/20 20:11:40;;;;;;;16.60;9.20;;;22.30;99.90;;;;;;1945839;72;25196;-90
2023/06/20 20:14:34;;;;;;;13.50;8.90;;;22.20;99.90;;;;;;1956520;72;25239;-90
2023/06/20 20:17:23;;;;;;;16.57;9.67;;;22.10;99.90;;;;;;1935431;72;25295;-90
2023/06/20 20:20:13;;;;;;;11.70;9.13;;;22.00;99.90;;;;;;1940304;72;25656;-89
2023/06/20 20:23:01;;;;;;;11.47;10.03;;;21.90;99.90;;;;;;1946363;72;25297;-89
2023/06/20 20:25:50;;;;;;;12.00;9.77;;;21.80;99.90;;;;;;1934688;72;25353;-89
2023/06/20 20:28:40;;;;;;;16.30;10.43;;;21.80;99.90;;;;;;1931895;73;25181;-89
2023/06/20 20:48:26;;;;;;;16.23;10.87;;;21.30;99.90;;;;;;1979180;71;26359;-90
2023/06/20 20:51:15;;;;;;;13.93;11.00;;;21.20;99.90;;;;;;1962435;72;25206;-90
2023/06/20 20:54:04;;;;;;;14.17;10.80;;;21.20;99.90;;;;;;2038112;69;25134;-90
2023/06/20 20:56:53;;;;;;;15.70;10.40;;;21.30;99.90;;;;;;2051386;69;25629;-90
2023/06/20 20:59:41;;;;;;;14.53;11.30;;;21.30;99.90;;;;;;1972019;72;25659;-89
2023/06/20 21:02:31;;;;;;;14.93;10.57;;;21.20;99.90;;;;;;2042499;69;25240;-90
2023/06/20 21:05:21;;;;;;;15.60;11.57;;;21.30;99.90;;;;;;2042201;69;25584;-90
2023/06/20 21:08:09;;;;;;;14.23;11.33;;;21.20;99.90;;;;;;2041919;69;25195;-89
2023/06/20 21:10:59;;;;;;;13.67;11.20;;;21.20;99.90;;;;;;2048527;69;25168;-89
2023/06/20 21:16:27;;;;;;;12.93;11.10;;;21.10;99.90;;;;;;1960850;72;27057;-89
2023/06/20 21:19:16;;;;;;;13.33;10.90;;;21.00;99.90;;;;;;1950685;72;25327;-89
2023/06/20 21:22:06;;;;;;;15.83;11.73;;;21.00;99.90;;;;;;1956372;73;25210;-89
2023/06/20 21:28:12;;;;;;;15.07;11.67;;;20.90;99.90;;;;;;2065230;68;26267;-89
2023/06/20 21:31:03;;;;;;;14.90;11.13;;;20.80;99.90;;;;;;2011514;70;25225;-88
2023/06/20 21:36:43;;;;;;;17.27;11.77;;;20.70;99.90;;;;;;1940899;72;27487;-89
2023/06/20 21:39:32;;;;;;;16.57;12.40;;;20.70;99.90;;;;;;1931795;73;25274;-89
2023/06/20 21:45:10;;;;;;;15.37;12.50;;;20.50;99.90;;;;;;1934185;73;27094;-89
2023/06/20 21:47:59;;;;;;;16.27;12.33;;;20.40;99.90;;;;;;1908150;74;25923;-89
2023/06/20 21:50:47;;;;;;;15.53;12.77;;;20.40;99.90;;;;;;1903587;73;25171;-89
2023/06/20 21:53:36;;;;;;;15.40;11.70;;;20.40;99.90;;;;;;1911221;73;25332;-90
2023/06/20 22:41:56;;;;;;;14.30;11.37;;;20.40;99.90;;;;;;1975220;71;27699;-89
2023/06/20 22:44:45;;;;;;;16.20;11.57;;;20.40;99.90;;;;;;1992290;72;25256;-89
2023/06/20 22:50:19;;;;;;;15.20;11.53;;;20.40;99.90;;;;;;1936598;72;26662;-89
2023/06/20 22:53:11;;;;;;;14.67;11.63;;;20.40;99.90;;;;;;1900215;75;25325;-89
2023/06/20 22:55:59;;;;;;;14.47;10.90;;;20.40;99.90;;;;;;1908784;75;25224;-89
2023/06/20 22:58:50;;;;;;;14.30;11.37;;;20.40;99.90;;;;;;1907905;73;25205;-92
2023/06/20 23:01:40;;;;;;;13.07;10.77;;;20.40;99.90;;;;;;1889823;73;25171;-89
